Terminal Aerodrome Forecast
Issued by NWS

Home | Current Version | Previous Version | Text Only | Print | Product List | Glossary On
Versions: 1 2 3 4 5 6 7 8 9 10 11 12 13 14
000
FTUS44 KMAF 280520
TAFINK
TAF
KINK 280520Z 2806/2906 12011KT P6SM FEW200
     FM281300 18011KT P6SM BKN130
     FM281700 24015G23KT P6SM FEW200
     FM282200 26025G35KT P6SM FEW200=

USA.gov is the U.S. government's official web portal to all federal, state and local government web resources and services.